No particular awareness of the weather is required.    There are no Weather-warnings


Meteo18 Weather Cam more information Meteo18 Weather Cam


Thunder radar more information blitzortung!


Rain radar more information rain snow radar


Visit our other weather sites:

Template documentation
and downloads

And another site



Weather Underground History page Text

Daily Summary for October 17, 2017 Units:  Both    English   Metric
« Previous Day
Next Day »
Daily Weekly Monthly Yearly Custom
  High: Low: Average:
Temperature: 76.6 °F /  24.8 °C 52 °F /  11.1 °C 61.2 °F /  16.2 °C
Dew Point: 58.5 °F /  14.7 °C 46.6 °F /  8.1 °C 52.5 °F /  11.4 °C
Humidity: 97 % 35 % 77 %
Wind Speed: 4 mph /  6.4 km/h - 0.4 mph /  0.7 km/h
Wind Gust: 10 mph /  16.1 km/h - -
Wind:- - SSE
Pressure: 30.3 in /  1024.6 hPa 30 in /  1016.5 hPa -
Precipitation: 0 in /  0.0 mm    
Historical Graphs
 
 
Tabular Data for October 17, 2017
Time Temperature Dew Point Pressure Wind Wind Speed Wind Gust Humidity Rainfall Rate (Hourly)
00:02 58.6 °F /  14.8 °C 56.3 °F /  13.5 °C 30.3 in /  1024.6 hPa Calm     92 % 0 in /  0.0 mm
00:12 58.5 °F /  14.7 °C 55.8 °F /  13.2 °C 30.3 in /  1024.3 hPa Calm     91 % 0 in /  0.0 mm
00:17 58.3 °F /  14.6 °C 55.6 °F /  13.1 °C 30.3 in /  1024.3 hPa NNW 1 mph /  1.6 km/h   91 % 0 in /  0.0 mm
00:22 58.3 °F /  14.6 °C 55.9 °F /  13.3 °C 30.3 in /  1024.3 hPa Calm     92 % 0 in /  0.0 mm
00:32 58.5 °F /  14.7 °C 55.8 °F /  13.2 °C 30.3 in /  1024.3 hPa Calm   1 mph /  1.6 km/h 91 % 0 in /  0.0 mm
00:37 58.3 °F /  14.6 °C 55.6 °F /  13.1 °C 30.3 in /  1024.3 hPa Calm   1 mph /  1.6 km/h 91 % 0 in /  0.0 mm
00:42 57.9 °F /  14.4 °C 55.2 °F /  12.9 °C 30.3 in /  1024.3 hPa Calm     91 % 0 in /  0.0 mm
00:47 57.7 °F /  14.3 °C 55.4 °F /  13.0 °C 30.3 in /  1024.3 hPa Calm     92 % 0 in /  0.0 mm
00:52 57.6 °F /  14.2 °C 55.2 °F /  12.9 °C 30.3 in /  1024.3 hPa Calm     92 % 0 in /  0.0 mm
00:57 57.6 °F /  14.2 °C 55.6 °F /  13.1 °C 30.3 in /  1024.3 hPa Calm     93 % 0 in /  0.0 mm
01:02 57.9 °F /  14.4 °C 56.1 °F /  13.4 °C 30.3 in /  1024.3 hPa Calm     94 % 0 in /  0.0 mm
01:07 58.3 °F /  14.6 °C 56.3 °F /  13.5 °C 30.3 in /  1024.3 hPa Calm   1 mph /  1.6 km/h 93 % 0 in /  0.0 mm
01:12 58.3 °F /  14.6 °C 55.9 °F /  13.3 °C 30.3 in /  1024.3 hPa Calm   1 mph /  1.6 km/h 92 % 0 in /  0.0 mm
01:17 57.9 °F /  14.4 °C 55.2 °F /  12.9 °C 30.3 in /  1024.3 hPa Calm   1 mph /  1.6 km/h 91 % 0 in /  0.0 mm
01:22 57.7 °F /  14.3 °C 55.4 °F /  13.0 °C 30.3 in /  1024.3 hPa Calm     92 % 0 in /  0.0 mm
01:27 57.6 °F /  14.2 °C 55.2 °F /  12.9 °C 30.3 in /  1024.3 hPa Calm     92 % 0 in /  0.0 mm
01:32 56.8 °F /  13.8 °C 54.3 °F /  12.4 °C 30.3 in /  1024.3 hPa SE 2 mph /  3.2 km/h   91 % 0 in /  0.0 mm
01:37 55 °F /  12.8 °C 52.5 °F /  11.4 °C 30.3 in /  1024.3 hPa Calm   3 mph /  4.8 km/h 91 % 0 in /  0.0 mm
01:42 54.9 °F /  12.7 °C 52.9 °F /  11.6 °C 30.3 in /  1024.6 hPa Calm   3 mph /  4.8 km/h 93 % 0 in /  0.0 mm
01:47 55.6 °F /  13.1 °C 54 °F /  12.2 °C 30.3 in /  1024.3 hPa Calm   3 mph /  4.8 km/h 94 % 0 in /  0.0 mm
01:52 55.8 °F /  13.2 °C 54.1 °F /  12.3 °C 30.3 in /  1024.6 hPa Calm   3 mph /  4.8 km/h 94 % 0 in /  0.0 mm
01:57 55.9 °F /  13.3 °C 54.5 °F /  12.5 °C 30.3 in /  1024.3 hPa Calm     95 % 0 in /  0.0 mm
02:02 55.8 °F /  13.2 °C 54.1 °F /  12.3 °C 30.3 in /  1024.6 hPa NNW 1 mph /  1.6 km/h   94 % 0 in /  0.0 mm
02:07 55.9 °F /  13.3 °C 54.5 °F /  12.5 °C 30.3 in /  1024.3 hPa Calm   2 mph /  3.2 km/h 95 % 0 in /  0.0 mm
02:12 56.5 °F /  13.6 °C 55 °F /  12.8 °C 30.3 in /  1024.3 hPa Calm   2 mph /  3.2 km/h 95 % 0 in /  0.0 mm
02:17 56.8 °F /  13.8 °C 55.4 °F /  13.0 °C 30.3 in /  1024.3 hPa Calm   2 mph /  3.2 km/h 95 % 0 in /  0.0 mm
02:22 57 °F /  13.9 °C 55.6 °F /  13.1 °C 30.3 in /  1024.3 hPa NW 1 mph /  1.6 km/h 2 mph /  3.2 km/h 95 % 0 in /  0.0 mm
02:27 56.7 °F /  13.7 °C 55 °F /  12.8 °C 30.3 in /  1024.3 hPa Calm   2 mph /  3.2 km/h 94 % 0 in /  0.0 mm
02:32 56.1 °F /  13.4 °C 54.5 °F /  12.5 °C 30.3 in /  1024.3 hPa Calm   2 mph /  3.2 km/h 94 % 0 in /  0.0 mm
02:42 55.9 °F /  13.3 °C 54.3 °F /  12.4 °C 30.3 in /  1024.3 hPa Calm   1 mph /  1.6 km/h 94 % 0 in /  0.0 mm
02:47 55.8 °F /  13.2 °C 54.1 °F /  12.3 °C 30.3 in /  1024.3 hPa Calm     94 % 0 in /  0.0 mm
02:52 54.5 °F /  12.5 °C 52.2 °F /  11.2 °C 30.3 in /  1024.3 hPa Calm   2 mph /  3.2 km/h 92 % 0 in /  0.0 mm
02:57 54 °F /  12.2 °C 52 °F /  11.1 °C 30.3 in /  1024.3 hPa Calm   2 mph /  3.2 km/h 93 % 0 in /  0.0 mm
03:02 54.5 °F /  12.5 °C 53.4 °F /  11.9 °C 30.3 in /  1024.3 hPa Calm   2 mph /  3.2 km/h 96 % 0 in /  0.0 mm
03:07 54.9 °F /  12.7 °C 53.4 °F /  11.9 °C 30.3 in /  1024.3 hPa Calm   3 mph /  4.8 km/h 95 % 0 in /  0.0 mm
03:12 54.9 °F /  12.7 °C 53.4 °F /  11.9 °C 30.3 in /  1024.3 hPa North 1 mph /  1.6 km/h 3 mph /  4.8 km/h 95 % 0 in /  0.0 mm
03:17 55.8 °F /  13.2 °C 54.7 °F /  12.6 °C 30.3 in /  1024.3 hPa Calm   2 mph /  3.2 km/h 96 % 0 in /  0.0 mm
03:22 55.8 °F /  13.2 °C 54.3 °F /  12.4 °C 30.3 in /  1024.3 hPa Calm   2 mph /  3.2 km/h 95 % 0 in /  0.0 mm
03:27 55.6 °F /  13.1 °C 54.1 °F /  12.3 °C 30.3 in /  1024.3 hPa Calm   1 mph /  1.6 km/h 95 % 0 in /  0.0 mm
03:32 55.6 °F /  13.1 °C 54.1 °F /  12.3 °C 30.3 in /  1024.3 hPa Calm   1 mph /  1.6 km/h 95 % 0 in /  0.0 mm
03:37 55.8 °F /  13.2 °C 54.3 °F /  12.4 °C 30.3 in /  1024.3 hPa Calm   1 mph /  1.6 km/h 95 % 0 in /  0.0 mm
03:42 55.8 °F /  13.2 °C 54.3 °F /  12.4 °C 30.3 in /  1024.3 hPa Calm   1 mph /  1.6 km/h 95 % 0 in /  0.0 mm
03:47 55.4 °F /  13.0 °C 54 °F /  12.2 °C 30.3 in /  1024.3 hPa Calm   1 mph /  1.6 km/h 95 % 0 in /  0.0 mm
03:52 55 °F /  12.8 °C 53.6 °F /  12.0 °C 30.3 in /  1024.3 hPa Calm   1 mph /  1.6 km/h 95 % 0 in /  0.0 mm
03:57 54.5 °F /  12.5 °C 52.9 °F /  11.6 °C 30.3 in /  1024.3 hPa Calm     94 % 0 in /  0.0 mm
04:02 54.1 °F /  12.3 °C 52.7 °F /  11.5 °C 30.3 in /  1024.3 hPa Calm     95 % 0 in /  0.0 mm
04:12 53.8 °F /  12.1 °C 52.3 °F /  11.3 °C 30.3 in /  1024.3 hPa Calm     95 % 0 in /  0.0 mm
04:17 53.8 °F /  12.1 °C 52.3 °F /  11.3 °C 30.3 in /  1024.3 hPa Calm   1 mph /  1.6 km/h 95 % 0 in /  0.0 mm
04:22 53.8 °F /  12.1 °C 52.3 °F /  11.3 °C 30.2 in /  1023.9 hPa Calm   1 mph /  1.6 km/h 95 % 0 in /  0.0 mm
04:32 53.8 °F /  12.1 °C 52.7 °F /  11.5 °C 30.3 in /  1024.3 hPa Calm     96 % 0 in /  0.0 mm
04:42 54.1 °F /  12.3 °C 53.1 °F /  11.7 °C 30.2 in /  1023.9 hPa Calm     96 % 0 in /  0.0 mm
04:47 54 °F /  12.2 °C 52.9 °F /  11.6 °C 30.2 in /  1023.9 hPa Calm   1 mph /  1.6 km/h 96 % 0 in /  0.0 mm
04:52 54 °F /  12.2 °C 52.9 °F /  11.6 °C 30.2 in /  1023.9 hPa Calm   1 mph /  1.6 km/h 96 % 0 in /  0.0 mm
04:57 53.8 °F /  12.1 °C 52.3 °F /  11.3 °C 30.2 in /  1023.9 hPa NNE 1 mph /  1.6 km/h 1 mph /  1.6 km/h 95 % 0 in /  0.0 mm
05:02 53.8 °F /  12.1 °C 52.7 °F /  11.5 °C 30.2 in /  1023.9 hPa Calm   1 mph /  1.6 km/h 96 % 0 in /  0.0 mm
05:22 53.2 °F /  11.8 °C 52.2 °F /  11.2 °C 30.2 in /  1023.9 hPa Calm     96 % 0 in /  0.0 mm
05:27 53.1 °F /  11.7 °C 52 °F /  11.1 °C 30.2 in /  1023.9 hPa Calm     96 % 0 in /  0.0 mm
05:37 52.9 °F /  11.6 °C 51.8 °F /  11.0 °C 30.2 in /  1023.9 hPa Calm     96 % 0 in /  0.0 mm
05:42 53.2 °F /  11.8 °C 52.2 °F /  11.2 °C 30.2 in /  1023.9 hPa Calm     96 % 0 in /  0.0 mm
05:47 53.6 °F /  12.0 °C 52.7 °F /  11.5 °C 30.2 in /  1023.6 hPa Calm     97 % 0 in /  0.0 mm
05:52 53.8 °F /  12.1 °C 52.9 °F /  11.6 °C 30.2 in /  1023.6 hPa Calm     97 % 0 in /  0.0 mm
05:57 53.2 °F /  11.8 °C 52.2 °F /  11.2 °C 30.2 in /  1023.6 hPa Calm     96 % 0 in /  0.0 mm
06:02 53.2 °F /  11.8 °C 52.2 °F /  11.2 °C 30.2 in /  1023.6 hPa Calm     96 % 0 in /  0.0 mm
06:12 53.2 °F /  11.8 °C 52.2 °F /  11.2 °C 30.2 in /  1023.2 hPa Calm     96 % 0 in /  0.0 mm
06:17 52.5 °F /  11.4 °C 51.4 °F /  10.8 °C 30.2 in /  1023.6 hPa North 1 mph /  1.6 km/h   96 % 0 in /  0.0 mm
06:22 52.7 °F /  11.5 °C 51.6 °F /  10.9 °C 30.2 in /  1023.6 hPa Calm     96 % 0 in /  0.0 mm
06:32 53.4 °F /  11.9 °C 52.5 °F /  11.4 °C 30.2 in /  1023.6 hPa Calm   1 mph /  1.6 km/h 97 % 0 in /  0.0 mm
06:42 53.1 °F /  11.7 °C 52.2 °F /  11.2 °C 30.2 in /  1023.6 hPa Calm   1 mph /  1.6 km/h 97 % 0 in /  0.0 mm
06:52 53.8 °F /  12.1 °C 52.9 °F /  11.6 °C 30.2 in /  1023.2 hPa Calm     97 % 0 in /  0.0 mm
07:02 53.2 °F /  11.8 °C 52.3 °F /  11.3 °C 30.2 in /  1023.2 hPa Calm     97 % 0 in /  0.0 mm
07:12 53.2 °F /  11.8 °C 52.3 °F /  11.3 °C 30.2 in /  1023.2 hPa Calm     97 % 0 in /  0.0 mm
07:22 52.7 °F /  11.5 °C 51.6 °F /  10.9 °C 30.2 in /  1023.2 hPa Calm     96 % 0 in /  0.0 mm
07:32 53.1 °F /  11.7 °C 52.2 °F /  11.2 °C 30.2 in /  1023.2 hPa Calm     97 % 0 in /  0.0 mm
07:42 52.2 °F /  11.2 °C 51.1 °F /  10.6 °C 30.2 in /  1023.2 hPa Calm     96 % 0 in /  0.0 mm
07:52 52.2 °F /  11.2 °C 51.1 °F /  10.6 °C 30.2 in /  1023.2 hPa Calm     96 % 0 in /  0.0 mm
07:57 52.3 °F /  11.3 °C 51.4 °F /  10.8 °C 30.2 in /  1023.2 hPa Calm     97 % 0 in /  0.0 mm
08:02 52.5 °F /  11.4 °C 51.6 °F /  10.9 °C 30.2 in /  1023.2 hPa Calm     97 % 0 in /  0.0 mm
08:12 52.5 °F /  11.4 °C 51.6 °F /  10.9 °C 30.2 in /  1023.2 hPa Calm     97 % 0 in /  0.0 mm
08:22 52.3 °F /  11.3 °C 51.4 °F /  10.8 °C 30.2 in /  1023.2 hPa Calm     97 % 0 in /  0.0 mm
08:32 52.3 °F /  11.3 °C 51.4 °F /  10.8 °C 30.2 in /  1023.2 hPa Calm     97 % 0 in /  0.0 mm
08:37 52 °F /  11.1 °C 51.1 °F /  10.6 °C 30.2 in /  1023.2 hPa Calm     97 % 0 in /  0.0 mm
08:42 52.2 °F /  11.2 °C 51.3 °F /  10.7 °C 30.2 in /  1023.2 hPa Calm     97 % 0 in /  0.0 mm
08:52 52.9 °F /  11.6 °C 52 °F /  11.1 °C 30.2 in /  1023.2 hPa Calm     97 % 0 in /  0.0 mm
08:57 53.1 °F /  11.7 °C 52.2 °F /  11.2 °C 30.2 in /  1023.2 hPa Calm     97 % 0 in /  0.0 mm
09:02 53.2 °F /  11.8 °C 52.3 °F /  11.3 °C 30.2 in /  1023.2 hPa Calm     97 % 0 in /  0.0 mm
09:12 53.2 °F /  11.8 °C 52.3 °F /  11.3 °C 30.2 in /  1023.2 hPa Calm     97 % 0 in /  0.0 mm
09:17 53.4 °F /  11.9 °C 52.5 °F /  11.4 °C 30.2 in /  1023.2 hPa Calm     97 % 0 in /  0.0 mm
09:22 53.8 °F /  12.1 °C 52.9 °F /  11.6 °C 30.2 in /  1023.2 hPa Calm     97 % 0 in /  0.0 mm
09:32 54.7 °F /  12.6 °C 53.8 °F /  12.1 °C 30.2 in /  1023.2 hPa Calm     97 % 0 in /  0.0 mm
09:42 55.6 °F /  13.1 °C 54.7 °F /  12.6 °C 30.2 in /  1023.2 hPa Calm     97 % 0 in /  0.0 mm
09:52 56.8 °F /  13.8 °C 55.9 °F /  13.3 °C 30.2 in /  1022.9 hPa Calm     97 % 0 in /  0.0 mm
10:02 57.9 °F /  14.4 °C 57 °F /  13.9 °C 30.2 in /  1022.9 hPa Calm     97 % 0 in /  0.0 mm
10:12 58.5 °F /  14.7 °C 57 °F /  13.9 °C 30.2 in /  1022.9 hPa Calm     95 % 0 in /  0.0 mm
10:17 58.8 °F /  14.9 °C 56.8 °F /  13.8 °C 30.2 in /  1022.9 hPa Calm     93 % 0 in /  0.0 mm
10:22 59.2 °F /  15.1 °C 56.5 °F /  13.6 °C 30.2 in /  1022.9 hPa Calm     91 % 0 in /  0.0 mm
10:32 60.1 °F /  15.6 °C 56.5 °F /  13.6 °C 30.2 in /  1022.9 hPa Calm   2 mph /  3.2 km/h 88 % 0 in /  0.0 mm
10:37 60.8 °F /  16.0 °C 56.7 °F /  13.7 °C 30.2 in /  1022.9 hPa Calm   2 mph /  3.2 km/h 86 % 0 in /  0.0 mm
10:42 61 °F /  16.1 °C 56.1 °F /  13.4 °C 30.2 in /  1022.9 hPa Calm   2 mph /  3.2 km/h 84 % 0 in /  0.0 mm
10:52 61.3 °F /  16.3 °C 56.1 °F /  13.4 °C 30.2 in /  1022.6 hPa Calm     83 % 0 in /  0.0 mm
11:02 61.3 °F /  16.3 °C 55 °F /  12.8 °C 30.2 in /  1022.2 hPa Calm     80 % 0 in /  0.0 mm
11:12 61.3 °F /  16.3 °C 55.4 °F /  13.0 °C 30.2 in /  1022.2 hPa Calm     81 % 0 in /  0.0 mm
11:17 61.9 °F /  16.6 °C 55.9 °F /  13.3 °C 30.2 in /  1022.2 hPa Calm     81 % 0 in /  0.0 mm
11:22 62.4 °F /  16.9 °C 55.8 °F /  13.2 °C 30.2 in /  1022.2 hPa Calm     79 % 0 in /  0.0 mm
11:32 63 °F /  17.2 °C 55.6 °F /  13.1 °C 30.2 in /  1021.9 hPa East 2 mph /  3.2 km/h   77 % 0 in /  0.0 mm
11:42 64.2 °F /  17.9 °C 56.5 °F /  13.6 °C 30.2 in /  1021.9 hPa Calm   4 mph /  6.4 km/h 76 % 0 in /  0.0 mm
11:52 65.5 °F /  18.6 °C 56.7 °F /  13.7 °C 30.2 in /  1021.9 hPa Calm   4 mph /  6.4 km/h 73 % 0 in /  0.0 mm
12:12 66.9 °F /  19.4 °C 55.9 °F /  13.3 °C 30.2 in /  1021.6 hPa Calm   4 mph /  6.4 km/h 68 % 0 in /  0.0 mm
12:22 67.8 °F /  19.9 °C 56.1 °F /  13.4 °C 30.2 in /  1021.6 hPa SE 2 mph /  3.2 km/h 4 mph /  6.4 km/h 66 % 0 in /  0.0 mm
12:32 67.8 °F /  19.9 °C 56.8 °F /  13.8 °C 30.2 in /  1021.2 hPa Calm   3 mph /  4.8 km/h 68 % 0 in /  0.0 mm
12:42 68.7 °F /  20.4 °C 56.5 °F /  13.6 °C 30.2 in /  1021.2 hPa East 1 mph /  1.6 km/h 5 mph /  8.0 km/h 65 % 0 in /  0.0 mm
12:47 69.1 °F /  20.6 °C 57.2 °F /  14.0 °C 30.2 in /  1021.2 hPa Calm   4 mph /  6.4 km/h 66 % 0 in /  0.0 mm
12:52 70.2 °F /  21.2 °C 57.4 °F /  14.1 °C 30.2 in /  1021.2 hPa SSE 1 mph /  1.6 km/h 4 mph /  6.4 km/h 64 % 0 in /  0.0 mm
13:02 70.3 °F /  21.3 °C 57.2 °F /  14.0 °C 30.2 in /  1020.9 hPa SSE 1 mph /  1.6 km/h 5 mph /  8.0 km/h 63 % 0 in /  0.0 mm
13:07 70.7 °F /  21.5 °C 57.6 °F /  14.2 °C 30.2 in /  1020.9 hPa Calm   4 mph /  6.4 km/h 63 % 0 in /  0.0 mm
13:12 70.9 °F /  21.6 °C 57.2 °F /  14.0 °C 30.2 in /  1020.9 hPa East 2 mph /  3.2 km/h 4 mph /  6.4 km/h 62 % 0 in /  0.0 mm
13:17 71.1 °F /  21.7 °C 57.4 °F /  14.1 °C 30.1 in /  1020.5 hPa East 3 mph /  4.8 km/h 3 mph /  4.8 km/h 62 % 0 in /  0.0 mm
13:22 71.1 °F /  21.7 °C 56.8 °F /  13.8 °C 30.1 in /  1020.5 hPa ENE 3 mph /  4.8 km/h 3 mph /  4.8 km/h 61 % 0 in /  0.0 mm
13:32 71.2 °F /  21.8 °C 57 °F /  13.9 °C 30.1 in /  1020.2 hPa ESE 1 mph /  1.6 km/h 6 mph /  9.7 km/h 61 % 0 in /  0.0 mm
13:37 71.8 °F /  22.1 °C 57.6 °F /  14.2 °C 30.1 in /  1020.2 hPa ENE 4 mph /  6.4 km/h 6 mph /  9.7 km/h 61 % 0 in /  0.0 mm
13:42 72 °F /  22.2 °C 57.7 °F /  14.3 °C 30.1 in /  1019.9 hPa ENE 3 mph /  4.8 km/h 6 mph /  9.7 km/h 61 % 0 in /  0.0 mm
13:47 72.3 °F /  22.4 °C 57.7 °F /  14.3 °C 30.1 in /  1019.9 hPa ESE 2 mph /  3.2 km/h 7 mph /  11.3 km/h 60 % 0 in /  0.0 mm
13:52 72.9 °F /  22.7 °C 57.7 °F /  14.3 °C 30.1 in /  1019.9 hPa SE 2 mph /  3.2 km/h 7 mph /  11.3 km/h 59 % 0 in /  0.0 mm
14:02 73.6 °F /  23.1 °C 58.3 °F /  14.6 °C 30.1 in /  1019.9 hPa ENE 3 mph /  4.8 km/h 6 mph /  9.7 km/h 59 % 0 in /  0.0 mm
14:12 74.1 °F /  23.4 °C 57.9 °F /  14.4 °C 30.1 in /  1019.5 hPa ENE 2 mph /  3.2 km/h 6 mph /  9.7 km/h 57 % 0 in /  0.0 mm
14:17 74.3 °F /  23.5 °C 58.1 °F /  14.5 °C 30.1 in /  1019.5 hPa SSE 1 mph /  1.6 km/h 7 mph /  11.3 km/h 57 % 0 in /  0.0 mm
14:27 74.8 °F /  23.8 °C 58.1 °F /  14.5 °C 30.1 in /  1019.2 hPa SE 1 mph /  1.6 km/h 7 mph /  11.3 km/h 56 % 0 in /  0.0 mm
14:32 74.8 °F /  23.8 °C 58.1 °F /  14.5 °C 30.1 in /  1019.2 hPa SE 1 mph /  1.6 km/h 7 mph /  11.3 km/h 56 % 0 in /  0.0 mm
14:42 75.2 °F /  24.0 °C 58.5 °F /  14.7 °C 30.1 in /  1018.8 hPa Calm   8 mph /  12.9 km/h 56 % 0 in /  0.0 mm
14:52 75.6 °F /  24.2 °C 58.3 °F /  14.6 °C 30.1 in /  1018.8 hPa East 1 mph /  1.6 km/h 8 mph /  12.9 km/h 55 % 0 in /  0.0 mm
15:02 75.9 °F /  24.4 °C 57.6 °F /  14.2 °C 30.1 in /  1018.5 hPa NE 2 mph /  3.2 km/h 8 mph /  12.9 km/h 53 % 0 in /  0.0 mm
15:12 75.7 °F /  24.3 °C 56.8 °F /  13.8 °C 30.1 in /  1018.5 hPa ENE 2 mph /  3.2 km/h 7 mph /  11.3 km/h 52 % 0 in /  0.0 mm
15:17 75.7 °F /  24.3 °C 55.8 °F /  13.2 °C 30.1 in /  1018.2 hPa NNE 2 mph /  3.2 km/h 6 mph /  9.7 km/h 50 % 0 in /  0.0 mm
15:22 75.7 °F /  24.3 °C 56.3 °F /  13.5 °C 30.1 in /  1018.2 hPa SE 2 mph /  3.2 km/h 6 mph /  9.7 km/h 51 % 0 in /  0.0 mm
15:32 75.9 °F /  24.4 °C 55.9 °F /  13.3 °C 30.1 in /  1018.2 hPa SSE 2 mph /  3.2 km/h 8 mph /  12.9 km/h 50 % 0 in /  0.0 mm
15:42 76.1 °F /  24.5 °C 54.3 °F /  12.4 °C 30.1 in /  1017.8 hPa ESE 1 mph /  1.6 km/h 8 mph /  12.9 km/h 47 % 0 in /  0.0 mm
15:47 76.3 °F /  24.6 °C 52.7 °F /  11.5 °C 30.1 in /  1017.8 hPa ENE 2 mph /  3.2 km/h 8 mph /  12.9 km/h 44 % 0 in /  0.0 mm
15:52 75.9 °F /  24.4 °C 52.5 °F /  11.4 °C 30.1 in /  1017.8 hPa East 1 mph /  1.6 km/h 8 mph /  12.9 km/h 44 % 0 in /  0.0 mm
16:02 76.5 °F /  24.7 °C 51.1 °F /  10.6 °C 30.1 in /  1017.8 hPa SE 1 mph /  1.6 km/h 8 mph /  12.9 km/h 41 % 0 in /  0.0 mm
16:12 76.6 °F /  24.8 °C 46.9 °F /  8.3 °C 30.1 in /  1017.8 hPa SE 4 mph /  6.4 km/h 9 mph /  14.5 km/h 35 % 0 in /  0.0 mm
16:17 76.3 °F /  24.6 °C 46.6 °F /  8.1 °C 30.1 in /  1017.8 hPa East 3 mph /  4.8 km/h 9 mph /  14.5 km/h 35 % 0 in /  0.0 mm
16:22 76.3 °F /  24.6 °C 48.7 °F /  9.3 °C 30.1 in /  1017.8 hPa SSE 3 mph /  4.8 km/h 9 mph /  14.5 km/h 38 % 0 in /  0.0 mm
16:32 76.3 °F /  24.6 °C 48 °F /  8.9 °C 30.1 in /  1017.5 hPa SE 2 mph /  3.2 km/h 9 mph /  14.5 km/h 37 % 0 in /  0.0 mm
16:42 76.5 °F /  24.7 °C 48.2 °F /  9.0 °C 30.1 in /  1017.5 hPa SSE 2 mph /  3.2 km/h 7 mph /  11.3 km/h 37 % 0 in /  0.0 mm
16:47 76.5 °F /  24.7 °C 49.6 °F /  9.8 °C 30.1 in /  1017.5 hPa Calm   8 mph /  12.9 km/h 39 % 0 in /  0.0 mm
16:52 76.6 °F /  24.8 °C 49.1 °F /  9.5 °C 30.1 in /  1017.5 hPa Calm   8 mph /  12.9 km/h 38 % 0 in /  0.0 mm
17:02 76.5 °F /  24.7 °C 49.6 °F /  9.8 °C 30.1 in /  1017.5 hPa East 1 mph /  1.6 km/h 10 mph /  16.1 km/h 39 % 0 in /  0.0 mm
17:12 76.3 °F /  24.6 °C 48 °F /  8.9 °C 30.1 in /  1017.5 hPa SW 1 mph /  1.6 km/h 10 mph /  16.1 km/h 37 % 0 in /  0.0 mm
17:17 76.1 °F /  24.5 °C 50 °F /  10.0 °C 30 in /  1017.2 hPa Calm   7 mph /  11.3 km/h 40 % 0 in /  0.0 mm
17:22 76.1 °F /  24.5 °C 48.6 °F /  9.2 °C 30 in /  1017.2 hPa SSE 3 mph /  4.8 km/h 7 mph /  11.3 km/h 38 % 0 in /  0.0 mm
17:32 76.3 °F /  24.6 °C 50.2 °F /  10.1 °C 30 in /  1017.2 hPa SE 3 mph /  4.8 km/h 7 mph /  11.3 km/h 40 % 0 in /  0.0 mm
17:42 75.7 °F /  24.3 °C 49.6 °F /  9.8 °C 30 in /  1017.2 hPa Calm   5 mph /  8.0 km/h 40 % 0 in /  0.0 mm
17:52 76.1 °F /  24.5 °C 50 °F /  10.0 °C 30 in /  1017.2 hPa Calm   5 mph /  8.0 km/h 40 % 0 in /  0.0 mm
17:57 75.9 °F /  24.4 °C 49.8 °F /  9.9 °C 30 in /  1016.8 hPa Calm   4 mph /  6.4 km/h 40 % 0 in /  0.0 mm
18:02 75.7 °F /  24.3 °C 50.4 °F /  10.2 °C 30 in /  1016.8 hPa Calm   4 mph /  6.4 km/h 41 % 0 in /  0.0 mm
18:12 75 °F /  23.9 °C 50.4 °F /  10.2 °C 30 in /  1016.8 hPa Calm   2 mph /  3.2 km/h 42 % 0 in /  0.0 mm
18:17 74.7 °F /  23.7 °C 50.7 °F /  10.4 °C 30 in /  1016.8 hPa Calm   2 mph /  3.2 km/h 43 % 0 in /  0.0 mm
18:22 74.1 °F /  23.4 °C 50.2 °F /  10.1 °C 30 in /  1016.8 hPa Calm   2 mph /  3.2 km/h 43 % 0 in /  0.0 mm
18:32 73 °F /  22.8 °C 49.3 °F /  9.6 °C 30 in /  1016.8 hPa Calm   5 mph /  8.0 km/h 43 % 0 in /  0.0 mm
18:42 71.2 °F /  21.8 °C 49.5 °F /  9.7 °C 30 in /  1016.8 hPa Calm   2 mph /  3.2 km/h 46 % 0 in /  0.0 mm
18:47 70.9 °F /  21.6 °C 49.6 °F /  9.8 °C 30 in /  1016.8 hPa Calm     47 % 0 in /  0.0 mm
18:52 70.5 °F /  21.4 °C 49.3 °F /  9.6 °C 30 in /  1016.5 hPa Calm     47 % 0 in /  0.0 mm
18:57 70 °F /  21.1 °C 48.7 °F /  9.3 °C 30 in /  1016.5 hPa Calm     47 % 0 in /  0.0 mm
19:02 69.1 °F /  20.6 °C 49.6 °F /  9.8 °C 30 in /  1016.8 hPa Calm     50 % 0 in /  0.0 mm
19:12 67.1 °F /  19.5 °C 49.5 °F /  9.7 °C 30 in /  1016.8 hPa Calm   1 mph /  1.6 km/h 53 % 0 in /  0.0 mm
19:17 66.4 °F /  19.1 °C 49.3 °F /  9.6 °C 30 in /  1016.8 hPa Calm   1 mph /  1.6 km/h 54 % 0 in /  0.0 mm
19:22 66 °F /  18.9 °C 49.5 °F /  9.7 °C 30 in /  1016.8 hPa Calm   1 mph /  1.6 km/h 55 % 0 in /  0.0 mm
19:32 65.3 °F /  18.5 °C 49.3 °F /  9.6 °C 30 in /  1016.5 hPa Calm     56 % 0 in /  0.0 mm
19:37 64.8 °F /  18.2 °C 49.6 °F /  9.8 °C 30 in /  1016.5 hPa Calm     58 % 0 in /  0.0 mm
19:47 64 °F /  17.8 °C 50.4 °F /  10.2 °C 30 in /  1016.5 hPa North 2 mph /  3.2 km/h 2 mph /  3.2 km/h 61 % 0 in /  0.0 mm
19:52 63.7 °F /  17.6 °C 50.4 °F /  10.2 °C 30 in /  1016.5 hPa Calm   2 mph /  3.2 km/h 62 % 0 in /  0.0 mm
19:57 63 °F /  17.2 °C 50.5 °F /  10.3 °C 30 in /  1016.5 hPa NNW 1 mph /  1.6 km/h 2 mph /  3.2 km/h 64 % 0 in /  0.0 mm
20:02 62.6 °F /  17.0 °C 49.5 °F /  9.7 °C 30 in /  1016.8 hPa NNW 1 mph /  1.6 km/h 2 mph /  3.2 km/h 62 % 0 in /  0.0 mm
20:07 62.2 °F /  16.8 °C 49.1 °F /  9.5 °C 30 in /  1016.5 hPa Calm   1 mph /  1.6 km/h 62 % 0 in /  0.0 mm
20:12 62.2 °F /  16.8 °C 49.5 °F /  9.7 °C 30 in /  1016.5 hPa NNW 1 mph /  1.6 km/h 1 mph /  1.6 km/h 63 % 0 in /  0.0 mm
20:17 61.9 °F /  16.6 °C 50 °F /  10.0 °C 30 in /  1016.5 hPa NNW 1 mph /  1.6 km/h 1 mph /  1.6 km/h 65 % 0 in /  0.0 mm
20:22 61.3 °F /  16.3 °C 49.8 °F /  9.9 °C 30 in /  1016.5 hPa Calm   2 mph /  3.2 km/h 66 % 0 in /  0.0 mm
20:27 60.8 °F /  16.0 °C 49.8 °F /  9.9 °C 30 in /  1016.5 hPa North 1 mph /  1.6 km/h 2 mph /  3.2 km/h 67 % 0 in /  0.0 mm
20:32 60.6 °F /  15.9 °C 50 °F /  10.0 °C 30 in /  1016.5 hPa Calm   2 mph /  3.2 km/h 68 % 0 in /  0.0 mm
20:37 60.6 °F /  15.9 °C 50 °F /  10.0 °C 30 in /  1016.5 hPa Calm   2 mph /  3.2 km/h 68 % 0 in /  0.0 mm
20:42 60.4 °F /  15.8 °C 50.2 °F /  10.1 °C 30 in /  1016.5 hPa Calm   1 mph /  1.6 km/h 69 % 0 in /  0.0 mm
20:47 60.1 °F /  15.6 °C 49.8 °F /  9.9 °C 30 in /  1016.5 hPa Calm   1 mph /  1.6 km/h 69 % 0 in /  0.0 mm
20:52 59.5 °F /  15.3 °C 49.3 °F /  9.6 °C 30 in /  1016.5 hPa Calm   1 mph /  1.6 km/h 69 % 0 in /  0.0 mm
21:02 59 °F /  15.0 °C 50 °F /  10.0 °C 30 in /  1016.5 hPa Calm     72 % 0 in /  0.0 mm
21:07 58.5 °F /  14.7 °C 49.8 °F /  9.9 °C 30 in /  1016.5 hPa Calm     73 % 0 in /  0.0 mm
21:12 57.6 °F /  14.2 °C 50 °F /  10.0 °C 30 in /  1016.5 hPa Calm     76 % 0 in /  0.0 mm
21:17 57 °F /  13.9 °C 49.8 °F /  9.9 °C 30 in /  1016.5 hPa Calm     77 % 0 in /  0.0 mm
21:22 56.7 °F /  13.7 °C 49.5 °F /  9.7 °C 30 in /  1016.5 hPa Calm     77 % 0 in /  0.0 mm
21:27 56.8 °F /  13.8 °C 49.3 °F /  9.6 °C 30 in /  1016.5 hPa Calm     76 % 0 in /  0.0 mm
21:32 56.5 °F /  13.6 °C 49.3 °F /  9.6 °C 30 in /  1016.5 hPa Calm     77 % 0 in /  0.0 mm
21:42 56.7 °F /  13.7 °C 49.1 °F /  9.5 °C 30 in /  1016.5 hPa WNW 2 mph /  3.2 km/h   76 % 0 in /  0.0 mm
21:47 56.7 °F /  13.7 °C 48.4 °F /  9.1 °C 30 in /  1016.5 hPa West 1 mph /  1.6 km/h 3 mph /  4.8 km/h 74 % 0 in /  0.0 mm
21:52 57 °F /  13.9 °C 48.7 °F /  9.3 °C 30 in /  1016.5 hPa Calm   3 mph /  4.8 km/h 74 % 0 in /  0.0 mm
21:57 57.2 °F /  14.0 °C 48.6 °F /  9.2 °C 30 in /  1016.5 hPa Calm   3 mph /  4.8 km/h 73 % 0 in /  0.0 mm
22:02 57 °F /  13.9 °C 48.4 °F /  9.1 °C 30 in /  1016.5 hPa Calm   3 mph /  4.8 km/h 73 % 0 in /  0.0 mm
22:07 57 °F /  13.9 °C 48.4 °F /  9.1 °C 30 in /  1016.8 hPa Calm   1 mph /  1.6 km/h 73 % 0 in /  0.0 mm
22:17 55.8 °F /  13.2 °C 48.4 °F /  9.1 °C 30 in /  1016.8 hPa Calm   1 mph /  1.6 km/h 76 % 0 in /  0.0 mm
22:27 55.2 °F /  12.9 °C 48.6 °F /  9.2 °C 30 in /  1016.8 hPa Calm     78 % 0 in /  0.0 mm
22:32 55.4 °F /  13.0 °C 48.4 °F /  9.1 °C 30 in /  1016.8 hPa Calm     77 % 0 in /  0.0 mm
22:37 55.6 °F /  13.1 °C 48.6 °F /  9.2 °C 30 in /  1016.8 hPa Calm     77 % 0 in /  0.0 mm
22:47 55.6 °F /  13.1 °C 48.2 °F /  9.0 °C 30 in /  1016.8 hPa Calm     76 % 0 in /  0.0 mm
22:52 55.2 °F /  12.9 °C 48.2 °F /  9.0 °C 30 in /  1016.8 hPa Calm     77 % 0 in /  0.0 mm
22:57 55 °F /  12.8 °C 48 °F /  8.9 °C 30 in /  1016.8 hPa WNW 2 mph /  3.2 km/h 2 mph /  3.2 km/h 77 % 0 in /  0.0 mm
23:02 55 °F /  12.8 °C 47.7 °F /  8.7 °C 30 in /  1016.8 hPa Calm   2 mph /  3.2 km/h 76 % 0 in /  0.0 mm
23:12 52.9 °F /  11.6 °C 46.9 °F /  8.3 °C 30 in /  1017.2 hPa Calm   3 mph /  4.8 km/h 80 % 0 in /  0.0 mm
23:17 53.1 °F /  11.7 °C 47.7 °F /  8.7 °C 30 in /  1017.2 hPa Calm   5 mph /  8.0 km/h 82 % 0 in /  0.0 mm
23:22 53.2 °F /  11.8 °C 47.5 °F /  8.6 °C 30 in /  1017.2 hPa Calm   5 mph /  8.0 km/h 81 % 0 in /  0.0 mm
23:32 53.8 °F /  12.1 °C 47.8 °F /  8.8 °C 30 in /  1017.2 hPa Calm     80 % 0 in /  0.0 mm
23:37 53.8 °F /  12.1 °C 47.5 °F /  8.6 °C 30 in /  1017.2 hPa Calm   1 mph /  1.6 km/h 79 % 0 in /  0.0 mm
23:42 54.1 °F /  12.3 °C 47.5 °F /  8.6 °C 30 in /  1017.2 hPa Calm   1 mph /  1.6 km/h 78 % 0 in /  0.0 mm
23:47 54.9 °F /  12.7 °C 47.8 °F /  8.8 °C 30 in /  1017.2 hPa Calm   1 mph /  1.6 km/h 77 % 0 in /  0.0 mm
23:52 54.9 °F /  12.7 °C 47.5 °F /  8.6 °C 30 in /  1017.2 hPa WNW 2 mph /  3.2 km/h 2 mph /  3.2 km/h 76 % 0 in /  0.0 mm
23:57 54.1 °F /  12.3 °C 47.1 °F /  8.4 °C 30 in /  1017.2 hPa Calm   3 mph /  4.8 km/h 77 % 0 in /  0.0 mm
Meteo18
Compliments of Weather Underground - 4 mb

Script developed by  Jim McMurry - jmcmurry@mwt.net Adapted for the template by  Wim van der Kuil - Leuven-Template.eu

You find our weather info also at:

European Weather Network

Weather Underground

Equipment we use:

Weather-station
Davis Vue

Weather-program
Meteohub

Weather-server
Raspberry PI 2 B+

Provider
1 and 1

Davis Vue

Meteohub

Raspberry PI 2 B+

1 and 1